SBOSBO SPU / LDSP
Speedbird OnlineSpeedbird Online SPU / LDSP

Split Airport
02:28 26°C

Location Split, Croatia
Latitude: 43.53889846801758
Longitude: 16.29800033569336
Local Time 02:28 on 22 Jun 2024
UTC +2 hours (Europe/Zagreb)
Currency £1 equals HRK 8.88
METAR LDSP 220000Z AUTO 03003KT 350V060 CAVOK 26/16 Q1010
TAF TAF LDSP 212325Z 2200/2300 VRB02KT CAVOK TX35/2212Z TN26/2202Z BECMG 2210/2212 24012KT BECMG 2213/2215 30014KT BECMG 2218/2220 32008KT
Weather As Of 22 Jun 2024 02:28
Description Clear sky
Wind 6 km/h from North-East (30°)
Cloud Cover 0%
Precipitation Rain: none, Snow: none
Sunrise 05:14
Sunset 20:39
NOTAM 18 active NOTAM
Rotations During the last 90 days there were
22 flights from LHR
38 flights to LHR
Lounges Business Lounge , Main Terminal
Web Wikipedia
Codes IATA: SPU
ICAO: LDSP
Altitude 24 Meter / 79 Feet
Distance 1,498 KM / 931 Miles
from London.
Runways
RunwayLength (m)Surface
052550Asphalt
232550Asphalt
Radio
TypeDescriptionFrequency
APPAPP120.875
INFOINFO128.675
TWRTWR124.675
Live ATC



Support Speedbird Online

© 2017-2024 Speedbird Online